Portada
METAR-TAF:

METAR-TAF

Aeropuertos :

Brescia Ghedi, Italia

latitud: 45-25N, longitud: 010-17E, altitud: 102 m

Observación

El informe se hizo hace 57 minutos, a las 23:55 UTC
Viento 6 kt del oeste
Temperatura 7°C
Humedad 81%
Presión 1010 hPa
Visibilidad 10 km o más
sin nubes por debajo de 1500 m y sin presencia de cumulonimbus.

METAR: LIPL 092355Z 26006KT CAVOK 07/04 Q1010 RMK SKC VIS MIN 9999 WIND THR31 26007KT WIND THR13 26007KT BLU

Hora: 01:52 (00:52 UTC)

Pronóstico

El informe se hizo hace 1 hora y 52 minutos, a las 23:00 UTC
Pronóstico válido del 10 a las 00 UTC al 10 a las 09 UTC
Viento 10 kt del oeste
Visibilidad 10 km o más
sin nubes por debajo de 1500 m y sin presencia de cumulonimbus.

TAF: LIPL 092300Z 1000/1009 27010KT CAVOK

Observaciones y pronósticos meteorológicos de más de 4000 aeropuertos (mensajes METAR y TAF).

Los puntos amarillos y rojos representan las estaciones disponibles.

Ponga el ratón en el punto deseado para ver el nombre de la estación.

Haga clic para ver las observaciones y los pronósticos meteorológicos.

Para cambiar el mapa : haga clic en los botones verdes con una cruz de color negro para hacer un zoom, en el botón verde con un guión para alejar o en las flechas verdes para mapas adyacentes.


METAR-TAF: